Time;durP1;ratioP1;P1;durP2;ratioP2;P2;SDS_P1;SDS_P2;PMS_P1;PMS_P2;Temp;Humidity;BMP_temperature;BMP_pressure;BME280_temperature;BME280_humidity;BME280_pressure;Samples;Min_cycle;Max_cycle;Signal;HPM_P1;HPM_P2
2021/07/26 00:00:47;;;;;;;0.40;0.20;;;21.70;99.90;;;;;;4935954;29;20560;-66
2021/07/26 00:03:13;;;;;;;0.40;0.20;;;21.70;99.90;;;;;;4936281;29;20177;-66
2021/07/26 00:05:39;;;;;;;0.40;0.20;;;21.70;99.90;;;;;;4935944;29;20444;-66
2021/07/26 00:08:05;;;;;;;0.40;0.10;;;21.70;99.90;;;;;;4935891;29;20475;-66
2021/07/26 00:10:31;;;;;;;0.50;0.20;;;21.80;99.90;;;;;;4935892;29;20236;-66
2021/07/26 00:12:56;;;;;;;0.40;0.20;;;21.80;99.90;;;;;;4935970;29;20465;-66
2021/07/26 00:15:22;;;;;;;0.40;0.20;;;21.80;95.50;;;;;;4937377;29;20573;-66
2021/07/26 00:17:47;;;;;;;0.40;0.20;;;21.80;94.10;;;;;;4939242;29;20239;-66
2021/07/26 00:20:14;;;;;;;0.40;0.20;;;21.90;92.50;;;;;;4939242;29;20185;-66
2021/07/26 00:22:40;;;;;;;0.50;0.20;;;21.90;99.90;;;;;;4939581;29;20641;-66
2021/07/26 00:25:07;;;;;;;0.40;0.20;;;21.90;99.90;;;;;;4939356;29;20424;-66
2021/07/26 00:27:33;;;;;;;0.50;0.20;;;22.00;74.20;;;;;;4939414;29;20279;-66
2021/07/26 00:29:58;;;;;;;0.50;0.20;;;21.90;57.70;;;;;;4939081;29;20672;-66
2021/07/26 00:32:24;;;;;;;0.50;0.27;;;21.40;99.90;;;;;;4939427;29;20268;-66
2021/07/26 00:34:49;;;;;;;0.40;0.20;;;21.00;99.90;;;;;;4939340;29;20300;-66
2021/07/26 00:37:15;;;;;;;0.40;0.20;;;21.10;99.90;;;;;;4939161;29;20209;-66
2021/07/26 00:39:41;;;;;;;6.70;1.17;;;21.20;99.90;;;;;;4938932;29;20272;-66
2021/07/26 00:42:06;;;;;;;0.40;0.20;;;21.20;99.90;;;;;;4939148;29;20265;-66
2021/07/26 00:44:33;;;;;;;0.50;0.30;;;20.90;99.90;;;;;;4938822;29;20217;-66
2021/07/26 00:47:00;;;;;;;0.40;0.17;;;20.80;99.90;;;;;;4938645;29;20209;-66
2021/07/26 00:49:27;;;;;;;0.40;0.20;;;20.90;99.90;;;;;;4938638;29;20424;-66
2021/07/26 00:51:54;;;;;;;0.40;0.20;;;21.00;99.90;;;;;;4938698;29;20496;-65
2021/07/26 00:54:40;;;;;;;0.40;0.20;;;21.00;99.90;;;;;;4938772;29;21031;-65
2021/07/26 00:57:07;;;;;;;0.40;0.20;;;21.10;99.90;;;;;;4938161;29;20464;-65
2021/07/26 00:59:33;;;;;;;0.40;0.20;;;21.00;99.90;;;;;;4938433;29;20506;-65
2021/07/26 01:02:00;;;;;;;0.47;0.20;;;21.00;99.90;;;;;;4938632;29;20437;-65
2021/07/26 01:04:26;;;;;;;0.40;0.20;;;20.90;99.90;;;;;;4938496;29;20432;-65
2021/07/26 01:06:53;;;;;;;0.40;0.20;;;20.70;99.90;;;;;;4938695;29;20478;-65
2021/07/26 01:09:18;;;;;;;1.73;1.07;;;20.70;99.90;;;;;;4938376;29;20420;-65
2021/07/26 01:11:45;;;;;;;0.40;0.10;;;20.80;99.90;;;;;;4921709;29;20447;-65
2021/07/26 01:14:12;;;;;;;0.40;0.20;;;20.90;99.90;;;;;;4938479;29;20215;-65
2021/07/26 01:16:38;;;;;;;0.40;0.20;;;21.00;99.90;;;;;;4921505;29;20475;-65
2021/07/26 01:19:04;;;;;;;0.40;0.20;;;21.00;99.90;;;;;;4938296;29;20425;-65
2021/07/26 01:21:31;;;;;;;0.40;0.20;;;20.90;99.90;;;;;;4938245;29;20614;-65
2021/07/26 01:23:57;;;;;;;0.40;0.20;;;21.00;99.90;;;;;;4938255;29;20181;-65
2021/07/26 01:26:25;;;;;;;0.40;0.20;;;21.00;99.90;;;;;;4920725;29;20479;-65
2021/07/26 01:28:54;;;;;;;0.40;0.20;;;21.10;99.90;;;;;;4938058;29;20436;-66
2021/07/26 01:31:20;;;;;;;0.40;0.20;;;21.00;99.90;;;;;;4938088;29;20425;-66
2021/07/26 01:33:47;;;;;;;0.40;0.20;;;20.80;99.90;;;;;;4938130;29;20429;-66
2021/07/26 01:36:13;;;;;;;0.40;0.20;;;20.80;99.90;;;;;;4937937;29;20906;-66
2021/07/26 01:38:39;;;;;;;0.40;0.17;;;20.80;99.90;;;;;;4920981;29;20429;-66
2021/07/26 01:41:10;;;;;;;0.40;0.20;;;20.90;99.90;;;;;;4937907;29;20516;-66
2021/07/26 01:43:50;;;;;;;0.40;0.20;;;21.00;99.90;;;;;;4938137;29;20878;-66
2021/07/26 01:46:40;;;;;;;0.40;0.20;;;20.90;99.90;;;;;;4938114;29;20816;-66
2021/07/26 01:49:33;;;;;;;0.40;0.20;;;20.80;99.90;;;;;;4937571;29;20823;-66
2021/07/26 01:51:59;;;;;;;0.40;0.20;;;20.80;99.90;;;;;;4937760;29;20425;-66
2021/07/26 01:54:27;;;;;;;0.50;0.40;;;20.70;99.90;;;;;;4937625;29;20420;-66
2021/07/26 01:56:53;;;;;;;0.40;0.20;;;20.80;99.90;;;;;;4937704;29;20441;-66
2021/07/26 01:59:19;;;;;;;0.40;0.20;;;20.80;99.90;;;;;;4937473;29;20457;-66
2021/07/26 02:01:44;;;;;;;0.40;0.20;;;20.90;99.90;;;;;;4920685;29;20440;-66
2021/07/26 02:04:10;;;;;;;0.40;0.20;;;20.90;99.90;;;;;;4937435;29;20240;-66
2021/07/26 02:06:35;;;;;;;0.40;0.20;;;20.90;99.90;;;;;;4937508;29;20576;-66
2021/07/26 02:09:01;;;;;;;0.40;0.20;;;20.80;99.90;;;;;;4937385;29;20271;-66
2021/07/26 02:11:27;;;;;;;0.43;0.20;;;20.80;99.90;;;;;;4920600;29;20227;-66
2021/07/26 02:13:53;;;;;;;0.40;0.20;;;20.90;99.90;;;;;;4937454;29;20267;-66
2021/07/26 02:16:20;;;;;;;0.40;0.20;;;20.90;99.90;;;;;;4937170;29;20240;-66
2021/07/26 02:18:46;;;;;;;0.50;0.20;;;20.70;99.90;;;;;;4920294;29;20476;-66
2021/07/26 02:21:11;;;;;;;0.83;0.77;;;20.60;99.90;;;;;;4937287;29;20472;-66
2021/07/26 02:23:37;;;;;;;0.50;0.20;;;20.50;99.90;;;;;;4937186;29;20177;-66
2021/07/26 02:26:03;;;;;;;0.40;0.20;;;20.60;99.90;;;;;;4937111;29;20574;-66
2021/07/26 02:28:28;;;;;;;0.40;0.20;;;20.70;99.90;;;;;;4937013;29;20583;-66
2021/07/26 02:30:54;;;;;;;0.40;0.20;;;20.60;99.90;;;;;;4937001;29;20531;-68
2021/07/26 02:33:20;;;;;;;0.80;0.80;;;20.50;99.90;;;;;;4937586;29;20208;-68
2021/07/26 02:35:50;;;;;;;0.50;0.40;;;20.40;99.90;;;;;;4920894;29;20618;-68
2021/07/26 02:38:15;;;;;;;0.50;0.20;;;20.20;99.90;;;;;;4936313;29;20313;-68
2021/07/26 02:40:41;;;;;;;0.40;0.20;;;20.20;99.90;;;;;;4937663;29;20485;-66
2021/07/26 02:43:06;;;;;;;0.40;0.20;;;20.20;99.90;;;;;;4937360;29;20180;-66
2021/07/26 02:45:32;;;;;;;0.40;0.20;;;20.30;99.90;;;;;;4920172;29;20271;-66
2021/07/26 02:47:57;;;;;;;0.40;0.20;;;20.30;99.90;;;;;;4937062;29;20213;-66
2021/07/26 02:50:26;;;;;;;0.47;0.20;;;20.30;99.90;;;;;;4920353;29;20185;-66
2021/07/26 02:52:52;;;;;;;0.40;0.20;;;20.30;99.90;;;;;;4937293;29;20205;-66
2021/07/26 02:55:18;;;;;;;0.50;0.20;;;20.40;99.90;;;;;;4937431;29;20450;-66
2021/07/26 02:57:44;;;;;;;0.40;0.20;;;20.50;99.90;;;;;;4937130;29;20906;-68
2021/07/26 03:00:10;;;;;;;0.40;0.20;;;20.60;99.90;;;;;;4937458;29;20244;-67
2021/07/26 03:02:37;;;;;;;0.50;0.40;;;20.60;99.90;;;;;;4937722;29;20432;-66
2021/07/26 03:05:04;;;;;;;0.43;0.20;;;20.40;99.90;;;;;;4937534;29;20499;-66
2021/07/26 03:07:30;;;;;;;0.40;0.20;;;20.40;99.90;;;;;;4937604;29;20468;-67
2021/07/26 03:09:56;;;;;;;3.73;2.00;;;20.30;99.90;;;;;;4937527;29;20452;-67
2021/07/26 03:12:21;;;;;;;0.50;0.20;;;20.20;99.90;;;;;;4937848;29;20440;-67
2021/07/26 03:14:47;;;;;;;0.40;0.20;;;20.10;99.90;;;;;;4937772;29;20286;-66
2021/07/26 03:17:12;;;;;;;1.33;0.70;;;20.10;99.90;;;;;;4937817;29;20181;-66
2021/07/26 03:19:38;;;;;;;0.40;0.20;;;20.10;99.90;;;;;;4937366;29;20635;-66
2021/07/26 03:22:48;;;;;;;0.40;0.20;;;20.00;99.90;;;;;;4937869;29;20220;-66
2021/07/26 03:25:14;;;;;;;0.40;0.17;;;20.10;99.90;;;;;;4937641;29;20275;-65
2021/07/26 03:27:40;;;;;;;0.40;0.20;;;20.20;99.90;;;;;;4919973;29;20551;-66
2021/07/26 03:30:06;;;;;;;0.40;0.20;;;20.20;99.90;;;;;;4936625;29;20512;-65
2021/07/26 03:32:32;;;;;;;0.40;0.20;;;20.00;99.90;;;;;;4936585;29;20499;-65
2021/07/26 03:34:57;;;;;;;0.50;0.30;;;20.00;99.90;;;;;;4936476;29;20425;-65
2021/07/26 03:37:23;;;;;;;0.40;0.20;;;20.10;99.90;;;;;;4936582;29;20192;-66
2021/07/26 03:39:51;;;;;;;0.40;0.20;;;20.20;99.90;;;;;;4936308;29;20197;-65
2021/07/26 03:42:17;;;;;;;0.60;0.60;;;20.20;99.90;;;;;;4919714;29;20523;-65
2021/07/26 03:44:42;;;;;;;0.40;0.20;;;20.30;99.90;;;;;;4919694;29;20425;-66
2021/07/26 03:47:08;;;;;;;0.47;0.20;;;20.40;99.90;;;;;;4919523;29;20586;-65
2021/07/26 03:49:33;;;;;;;0.40;0.20;;;20.50;99.90;;;;;;4936436;29;20634;-65
2021/07/26 03:51:59;;;;;;;2.60;2.50;;;20.70;99.90;;;;;;4940105;29;20173;-64
2021/07/26 03:54:25;;;;;;;0.47;0.20;;;20.80;99.90;;;;;;4940047;29;20173;-65
2021/07/26 03:56:50;;;;;;;0.40;0.20;;;21.10;99.90;;;;;;4940046;29;20244;-65
2021/07/26 03:59:16;;;;;;;0.60;0.50;;;21.10;99.90;;;;;;4939698;29;20207;-66
2021/07/26 04:01:45;;;;;;;0.40;0.20;;;21.40;99.90;;;;;;4939939;29;20735;-66
2021/07/26 04:04:10;;;;;;;0.50;0.20;;;21.50;99.90;;;;;;4939849;29;20177;-66
2021/07/26 04:06:39;;;;;;;0.40;0.20;;;21.60;99.90;;;;;;4939680;29;20547;-66
2021/07/26 04:09:07;;;;;;;0.60;0.60;;;21.80;99.90;;;;;;4939684;29;20193;-66
2021/07/26 04:11:35;;;;;;;0.50;0.20;;;21.90;99.90;;;;;;4939399;29;20436;-66
2021/07/26 04:14:05;;;;;;;0.83;0.70;;;21.90;99.90;;;;;;4922701;29;20573;-66
2021/07/26 04:16:31;;;;;;;0.40;0.20;;;21.90;99.90;;;;;;4922786;29;20463;-65
2021/07/26 04:18:59;;;;;;;0.40;0.20;;;21.90;99.90;;;;;;4939289;29;20876;-64
2021/07/26 04:21:34;;;;;;;0.40;0.20;;;22.00;99.90;;;;;;4922711;29;20184;-66
2021/07/26 04:24:03;;;;;;;0.50;0.20;;;22.20;99.90;;;;;;4939445;29;20439;-66
2021/07/26 04:26:29;;;;;;;0.40;0.20;;;22.90;15.20;;;;;;4939301;29;20495;-66
2021/07/26 04:28:56;;;;;;;0.50;0.30;;;23.90;1.00;;;;;;4922135;29;20436;-65
2021/07/26 04:31:22;;;;;;;0.50;0.20;;;24.60;99.90;;;;;;4939392;29;20758;-66
2021/07/26 04:33:47;;;;;;;0.43;0.20;;;25.10;99.90;;;;;;4939116;29;20428;-66
2021/07/26 04:36:13;;;;;;;0.40;0.20;;;25.30;21.60;;;;;;4922247;29;20527;-66
2021/07/26 04:38:41;;;;;;;0.40;0.20;;;25.40;1.00;;;;;;4922067;29;20184;-68
2021/07/26 04:41:07;;;;;;;1.23;1.13;;;25.20;99.90;;;;;;4939085;29;20261;-64
2021/07/26 04:43:34;;;;;;;0.40;0.20;;;24.90;99.90;;;;;;4939000;29;20795;-65
2021/07/26 04:45:59;;;;;;;0.60;0.60;;;24.60;1.00;;;;;;4938765;29;20203;-65
2021/07/26 04:48:25;;;;;;;0.50;0.20;;;24.30;99.90;;;;;;4938687;29;20977;-65
2021/07/26 04:50:51;;;;;;;0.40;0.20;;;24.20;99.90;;;;;;4938953;29;20248;-65
2021/07/26 04:53:16;;;;;;;0.40;0.20;;;24.00;99.90;;;;;;4938840;29;20252;-66
2021/07/26 04:55:42;;;;;;;1.43;1.33;;;24.00;99.90;;;;;;4938924;29;20252;-66
2021/07/26 04:58:08;;;;;;;0.50;0.20;;;23.80;99.90;;;;;;4938562;29;20185;-67
2021/07/26 05:00:33;;;;;;;0.93;0.70;;;23.60;1.00;;;;;;4938744;29;20185;-67
2021/07/26 05:02:59;;;;;;;0.50;0.30;;;23.30;1.00;;;;;;4937588;29;20193;-67
2021/07/26 05:05:25;;;;;;;0.73;0.60;;;23.30;1.00;;;;;;4938450;29;20219;-67
2021/07/26 05:07:51;;;;;;;0.60;0.43;;;23.30;1.00;;;;;;4938309;29;20303;-67
2021/07/26 05:10:17;;;;;;;0.73;0.67;;;23.30;1.00;;;;;;4938256;29;20512;-67
2021/07/26 05:12:43;;;;;;;0.40;0.20;;;23.40;1.00;;;;;;4938573;29;20219;-67
2021/07/26 05:15:10;;;;;;;0.50;0.20;;;23.40;1.00;;;;;;4938443;29;20424;-67
2021/07/26 05:17:36;;;;;;;1.03;0.93;;;23.40;1.00;;;;;;4938243;29;20185;-67
2021/07/26 05:20:02;;;;;;;2.20;1.27;;;23.30;1.00;;;;;;4938129;29;20519;-67
2021/07/26 05:22:28;;;;;;;0.50;0.20;;;23.30;1.00;;;;;;4938197;29;20535;-67
2021/07/26 05:24:53;;;;;;;0.47;0.20;;;23.20;1.00;;;;;;4938261;29;20527;-66
2021/07/26 05:27:20;;;;;;;0.50;0.20;;;23.20;1.00;;;;;;4937940;29;20209;-66
2021/07/26 05:29:46;;;;;;;0.73;0.73;;;23.40;1.00;;;;;;4937906;29;20181;-66
2021/07/26 05:32:12;;;;;;;0.40;0.20;;;23.50;1.00;;;;;;4937824;29;20894;-65
2021/07/26 05:34:37;;;;;;;0.50;0.30;;;23.50;1.00;;;;;;4921120;29;20189;-65
2021/07/26 05:37:03;;;;;;;0.50;0.20;;;23.60;1.00;;;;;;4937967;29;20589;-67
2021/07/26 05:39:29;;;;;;;0.40;0.20;;;23.50;1.00;;;;;;4937609;29;20192;-66
2021/07/26 05:41:58;;;;;;;28.97;27.03;;;23.70;1.00;;;;;;4937750;29;20211;-67
2021/07/26 05:44:24;;;;;;;0.60;0.40;;;23.70;1.00;;;;;;4937874;29;20191;-67
2021/07/26 05:46:50;;;;;;;0.40;0.20;;;24.00;1.00;;;;;;4937426;29;20472;-67
2021/07/26 05:49:15;;;;;;;0.40;0.20;;;24.10;99.90;;;;;;4937505;29;20436;-68
2021/07/26 05:51:41;;;;;;;0.40;0.20;;;24.10;99.90;;;;;;4937745;29;20837;-68
2021/07/26 05:54:07;;;;;;;0.40;0.20;;;24.10;99.90;;;;;;4937508;29;20184;-68
2021/07/26 05:56:40;;;;;;;0.40;0.20;;;24.20;1.00;;;;;;4937496;29;20185;-68
2021/07/26 05:59:06;;;;;;;0.40;0.20;;;24.00;1.00;;;;;;4937422;29;20194;-66
2021/07/26 06:01:47;;;;;;;0.50;0.20;;;24.10;1.00;;;;;;4937533;29;20511;-66
2021/07/26 06:04:18;;;;;;;0.40;0.20;;;24.20;1.00;;;;;;4937573;29;20437;-66
2021/07/26 06:06:46;;;;;;;0.40;0.20;;;24.10;1.00;;;;;;4937239;29;20488;-66
2021/07/26 06:09:12;;;;;;;0.40;0.20;;;24.00;1.00;;;;;;4937359;29;20952;-66
2021/07/26 06:11:39;;;;;;;3.13;3.03;;;24.20;99.90;;;;;;4937443;29;20516;-66
2021/07/26 06:14:06;;;;;;;0.40;0.20;;;24.60;1.00;;;;;;4936982;29;20429;-66
2021/07/26 06:16:32;;;;;;;0.40;0.17;;;24.80;1.00;;;;;;4937325;29;20447;-66
2021/07/26 06:19:08;;;;;;;0.40;0.20;;;25.50;19.00;;;;;;4937173;29;20535;-66
2021/07/26 06:21:34;;;;;;;0.40;0.20;;;27.70;1.00;;;;;;4937183;29;20424;-66
2021/07/26 06:23:59;;;;;;;0.40;0.20;;;28.90;97.00;;;;;;4937102;29;20913;-66
2021/07/26 06:26:25;;;;;;;1.57;1.17;;;29.30;1.00;;;;;;4936875;29;20710;-66
2021/07/26 06:28:51;;;;;;;0.40;0.20;;;29.40;1.00;;;;;;4937045;29;20602;-66
2021/07/26 06:31:17;;;;;;;0.40;0.20;;;29.50;1.00;;;;;;4936851;29;20181;-66
2021/07/26 06:33:43;;;;;;;0.40;0.20;;;29.10;1.00;;;;;;4920233;29;20745;-65
2021/07/26 06:36:08;;;;;;;0.50;0.27;;;28.90;1.00;;;;;;4936871;29;20177;-65
2021/07/26 06:38:36;;;;;;;0.50;0.20;;;28.60;38.90;;;;;;4936696;29;20634;-65
2021/07/26 06:41:01;;;;;;;0.50;0.20;;;29.00;1.00;;;;;;4936809;29;20247;-67
2021/07/26 06:43:27;;;;;;;0.50;0.20;;;29.40;1.00;;;;;;4936707;29;20531;-67
2021/07/26 06:45:52;;;;;;;4.23;1.07;;;29.30;1.00;;;;;;4936816;29;20184;-67
2021/07/26 06:48:18;;;;;;;0.50;0.20;;;28.50;19.70;;;;;;4936453;29;20276;-66
2021/07/26 06:50:43;;;;;;;0.50;0.20;;;28.00;99.90;;;;;;4936796;29;20212;-66
2021/07/26 06:53:09;;;;;;;0.50;0.20;;;27.70;99.90;;;;;;4951826;28;20191;-65
2021/07/26 06:55:38;;;;;;;0.40;0.20;;;27.30;99.90;;;;;;4968903;28;20187;-65
2021/07/26 06:58:05;;;;;;;0.50;0.20;;;27.50;99.90;;;;;;4941856;29;20219;-66
2021/07/26 07:00:31;;;;;;;0.50;0.20;;;27.70;99.90;;;;;;4957295;28;20432;-67
2021/07/26 07:02:57;;;;;;;0.50;0.20;;;27.90;99.90;;;;;;4975278;28;20438;-67
2021/07/26 07:05:22;;;;;;;0.40;0.13;;;27.90;99.90;;;;;;4975089;28;20461;-66
2021/07/26 07:07:48;;;;;;;0.50;0.20;;;28.30;97.80;;;;;;4958201;28;20212;-65
2021/07/26 07:10:13;;;;;;;0.50;0.20;;;28.70;19.50;;;;;;4936483;29;20198;-64
2021/07/26 07:12:39;;;;;;;0.50;0.20;;;29.60;1.00;;;;;;4955473;29;20188;-65
2021/07/26 07:15:05;;;;;;;2.27;1.80;;;30.00;1.00;;;;;;4954946;29;20184;-65
2021/07/26 07:17:30;;;;;;;0.50;0.30;;;31.50;1.00;;;;;;4936313;29;20181;-66
2021/07/26 07:19:56;;;;;;;0.50;0.20;;;32.10;1.00;;;;;;4936427;29;20425;-66
2021/07/26 07:22:21;;;;;;;0.50;0.10;;;31.50;1.00;;;;;;4936360;29;20196;-68
2021/07/26 07:24:47;;;;;;;0.50;0.20;;;31.50;1.00;;;;;;4948272;28;20206;-69
2021/07/26 07:27:13;;;;;;;0.50;0.40;;;31.10;1.00;;;;;;4961605;28;20293;-69
2021/07/26 07:29:39;;;;;;;0.70;0.50;;;30.70;1.00;;;;;;4961537;28;20255;-69
2021/07/26 07:32:05;;;;;;;0.50;0.20;;;29.90;1.00;;;;;;4961696;29;20998;-69
2021/07/26 07:34:31;;;;;;;0.50;0.20;;;29.20;1.00;;;;;;4963102;28;20172;-68
2021/07/26 07:36:58;;;;;;;0.50;0.20;;;28.80;1.00;;;;;;4980907;28;20483;-69
2021/07/26 07:39:28;;;;;;;0.50;0.20;;;28.40;1.00;;;;;;4980842;28;20426;-68
2021/07/26 07:41:54;;;;;;;0.50;0.20;;;28.00;99.90;;;;;;4970920;28;20524;-68
2021/07/26 07:44:20;;;;;;;0.60;0.40;;;27.60;99.90;;;;;;4961674;28;20435;-69
2021/07/26 07:46:45;;;;;;;0.50;0.20;;;27.10;1.00;;;;;;4961614;29;20547;-65
2021/07/26 07:49:11;;;;;;;0.97;0.97;;;26.60;1.00;;;;;;4961487;28;20515;-68
2021/07/26 07:51:36;;;;;;;0.97;0.97;;;26.00;99.90;;;;;;4962552;28;20624;-70
2021/07/26 07:54:02;;;;;;;0.50;0.20;;;25.50;1.00;;;;;;4953220;28;20267;-70
2021/07/26 07:56:28;;;;;;;0.50;0.20;;;25.60;99.90;;;;;;4972212;28;20291;-68
2021/07/26 07:58:56;;;;;;;0.50;0.30;;;25.60;1.00;;;;;;4980523;28;20510;-68
2021/07/26 08:01:31;;;;;;;2.20;1.70;;;25.70;1.00;;;;;;4965234;28;20191;-68
2021/07/26 08:03:56;;;;;;;0.50;0.20;;;25.50;1.00;;;;;;4961352;28;20517;-65
2021/07/26 08:06:22;;;;;;;0.50;0.20;;;25.40;99.90;;;;;;4944533;29;20566;-67
2021/07/26 08:08:48;;;;;;;0.70;0.57;;;25.40;1.00;;;;;;4961113;29;20188;-68
2021/07/26 08:11:13;;;;;;;0.50;0.20;;;25.20;99.90;;;;;;4961620;28;20251;-66
2021/07/26 08:13:39;;;;;;;0.50;0.20;;;25.20;1.00;;;;;;4961271;29;20439;-68
2021/07/26 08:16:06;;;;;;;0.50;0.20;;;25.30;1.00;;;;;;4961216;29;20199;-68
2021/07/26 08:18:32;;;;;;;0.70;0.50;;;25.50;1.00;;;;;;4961075;29;20505;-65
2021/07/26 08:20:58;;;;;;;0.50;0.20;;;25.50;99.90;;;;;;4961180;29;20455;-64
2021/07/26 08:23:23;;;;;;;1.50;1.40;;;25.30;1.00;;;;;;4961110;29;20478;-64
2021/07/26 08:25:49;;;;;;;0.50;0.50;;;25.20;1.00;;;;;;4967991;28;20434;-64
2021/07/26 08:28:14;;;;;;;0.50;0.20;;;25.20;99.90;;;;;;4963430;28;20310;-65
2021/07/26 08:30:43;;;;;;;0.80;0.30;;;25.40;1.00;;;;;;4964195;28;20188;-68
2021/07/26 08:33:09;;;;;;;2.83;1.80;;;25.40;73.80;;;;;;4965283;28;20179;-65
2021/07/26 08:35:35;;;;;;;0.80;0.80;;;25.50;99.90;;;;;;4979986;28;20434;-65
2021/07/26 08:38:01;;;;;;;0.77;0.67;;;25.40;1.00;;;;;;4977388;28;20431;-65
2021/07/26 08:40:28;;;;;;;1.20;0.80;;;25.10;1.00;;;;;;4977363;28;20671;-65
2021/07/26 08:42:56;;;;;;;6.30;1.90;;;24.90;21.00;;;;;;4977379;28;20183;-65
2021/07/26 08:45:22;;;;;;;1.13;1.13;;;24.90;18.20;;;;;;4977302;28;20438;-65
2021/07/26 08:47:48;;;;;;;0.50;0.20;;;24.80;47.60;;;;;;4976938;28;20813;-65
2021/07/26 08:50:17;;;;;;;0.40;0.10;;;24.90;99.90;;;;;;4977010;28;20518;-65
2021/07/26 08:52:45;;;;;;;0.40;0.20;;;25.10;1.00;;;;;;4977083;28;20763;-68
2021/07/26 08:55:18;;;;;;;0.40;0.20;;;25.60;99.90;;;;;;4977105;28;20745;-68
2021/07/26 08:57:48;;;;;;;1.23;1.00;;;26.00;99.90;;;;;;4976847;28;20438;-68
2021/07/26 09:00:16;;;;;;;1.07;0.77;;;25.80;99.90;;;;;;4968209;28;20455;-66
2021/07/26 09:02:42;;;;;;;0.93;0.83;;;25.80;1.00;;;;;;4940795;29;20439;-65
2021/07/26 09:05:11;;;;;;;0.50;0.20;;;25.70;99.90;;;;;;4957840;29;20455;-65
2021/07/26 09:07:41;;;;;;;0.70;0.50;;;25.90;99.90;;;;;;4957313;29;20216;-65
2021/07/26 09:10:17;;;;;;;1.50;1.40;;;25.80;1.00;;;;;;4957564;29;20874;-68
2021/07/26 09:12:44;;;;;;;0.50;0.20;;;25.50;99.90;;;;;;4957663;29;20447;-69
2021/07/26 09:15:27;;;;;;;1.80;1.30;;;25.60;99.90;;;;;;4940425;29;20526;-69
2021/07/26 09:17:53;;;;;;;1.00;0.77;;;25.70;99.90;;;;;;4957571;29;20439;-69
2021/07/26 09:20:20;;;;;;;1.80;1.70;;;25.70;99.90;;;;;;4957350;29;20509;-71
2021/07/26 09:22:47;;;;;;;0.50;0.20;;;25.60;1.00;;;;;;4940322;29;20905;-69
2021/07/26 09:25:20;;;;;;;0.50;0.20;;;25.60;99.90;;;;;;4957504;29;20432;-68
2021/07/26 09:27:57;;;;;;;0.50;0.30;;;25.90;99.90;;;;;;4940298;29;20479;-68
2021/07/26 09:30:23;;;;;;;0.40;0.20;;;25.60;1.00;;;;;;4940192;29;20444;-68
2021/07/26 09:32:50;;;;;;;1.47;1.37;;;25.50;28.40;;;;;;4957223;29;20463;-64
2021/07/26 09:35:15;;;;;;;0.80;0.80;;;24.80;99.90;;;;;;4957184;29;20512;-68
2021/07/26 09:37:41;;;;;;;1.83;1.73;;;24.60;1.00;;;;;;4956916;29;20515;-68
2021/07/26 09:40:21;;;;;;;0.70;0.60;;;24.20;1.00;;;;;;4946044;29;20184;-66
2021/07/26 09:42:47;;;;;;;3.40;1.33;;;24.00;1.00;;;;;;4941195;29;20440;-68
2021/07/26 09:45:25;;;;;;;0.63;0.60;;;24.00;1.00;;;;;;4957100;29;20428;-69
2021/07/26 09:48:09;;;;;;;0.50;0.30;;;24.00;1.00;;;;;;4946246;29;20472;-69
2021/07/26 09:50:36;;;;;;;0.50;0.40;;;24.10;1.00;;;;;;4937743;29;20990;-70
2021/07/26 09:53:08;;;;;;;0.50;0.23;;;24.10;1.00;;;;;;4937633;29;20493;-70
2021/07/26 09:55:34;;;;;;;1.53;0.93;;;24.20;1.00;;;;;;4924176;29;20435;-70
2021/07/26 09:58:02;;;;;;;0.50;0.20;;;24.00;1.00;;;;;;4956545;29;20483;-70
2021/07/26 10:00:28;;;;;;;0.40;0.20;;;24.10;1.00;;;;;;4949866;28;20282;-70
2021/07/26 10:02:54;;;;;;;0.50;0.40;;;24.20;1.00;;;;;;4975818;28;20439;-68
2021/07/26 10:05:22;;;;;;;0.83;0.83;;;24.40;1.00;;;;;;4958794;28;20466;-69
2021/07/26 10:07:50;;;;;;;0.47;0.30;;;24.50;1.00;;;;;;4975596;28;20471;-69
2021/07/26 10:10:17;;;;;;;0.50;0.30;;;24.70;99.90;;;;;;4975630;28;20441;-68
2021/07/26 10:12:44;;;;;;;0.50;0.20;;;24.90;93.90;;;;;;4976259;28;20822;-68
2021/07/26 10:15:11;;;;;;;0.50;0.30;;;25.00;34.60;;;;;;4972085;28;20439;-67
2021/07/26 10:17:39;;;;;;;0.50;0.43;;;25.40;1.00;;;;;;4956028;29;20524;-67
2021/07/26 10:20:07;;;;;;;0.50;0.37;;;25.40;1.00;;;;;;4939116;29;20453;-65
2021/07/26 10:22:33;;;;;;;0.40;0.20;;;25.50;1.00;;;;;;4956338;29;20431;-69
2021/07/26 10:25:06;;;;;;;2.37;1.87;;;25.50;1.00;;;;;;4956366;29;20431;-65
2021/07/26 10:27:34;;;;;;;1.90;1.80;;;25.40;99.90;;;;;;4957275;29;20467;-69
2021/07/26 10:30:00;;;;;;;1.77;1.33;;;24.90;1.00;;;;;;4940289;29;20499;-65
2021/07/26 10:32:29;;;;;;;0.77;0.53;;;24.50;99.90;;;;;;4957199;29;20468;-64
2021/07/26 10:35:02;;;;;;;2.50;1.67;;;24.50;99.90;;;;;;4956794;29;20511;-64
2021/07/26 10:37:37;;;;;;;1.47;1.20;;;24.10;1.00;;;;;;4957321;28;20520;-65
2021/07/26 10:40:27;;;;;;;0.50;0.37;;;24.00;1.00;;;;;;4957742;29;20427;-68
2021/07/26 10:42:55;;;;;;;0.40;0.20;;;23.90;1.00;;;;;;4957488;29;20928;-66
2021/07/26 10:45:36;;;;;;;0.40;0.10;;;24.20;1.00;;;;;;4968761;28;20513;-65
2021/07/26 10:48:20;;;;;;;0.63;0.63;;;24.70;1.00;;;;;;4962321;28;20486;-66
2021/07/26 10:50:47;;;;;;;1.03;0.73;;;25.10;99.90;;;;;;4956815;29;20434;-65
2021/07/26 10:53:34;;;;;;;0.40;0.20;;;25.10;99.90;;;;;;4956376;29;20431;-65
2021/07/26 10:56:14;;;;;;;0.40;0.20;;;25.50;99.90;;;;;;4956288;29;20460;-68
2021/07/26 10:58:42;;;;;;;0.50;0.20;;;26.10;99.90;;;;;;4955839;28;20439;-68
2021/07/26 11:01:20;;;;;;;0.50;0.30;;;26.60;99.90;;;;;;4970892;28;20430;-62
2021/07/26 11:03:46;;;;;;;0.50;0.20;;;27.00;1.00;;;;;;4974798;28;20440;-67
2021/07/26 11:06:36;;;;;;;0.50;0.20;;;27.70;1.00;;;;;;4974904;28;20474;-66
2021/07/26 11:09:34;;;;;;;0.50;0.10;;;28.30;1.00;;;;;;4957365;28;20590;-65
2021/07/26 11:12:02;;;;;;;0.50;0.20;;;28.30;99.90;;;;;;4974428;28;20450;-64
2021/07/26 11:14:28;;;;;;;0.50;0.20;;;28.60;99.90;;;;;;4938402;29;20440;-65
2021/07/26 11:17:03;;;;;;;0.50;0.20;;;28.90;99.90;;;;;;4955608;29;20669;-67
2021/07/26 11:19:36;;;;;;;0.50;0.20;;;29.10;99.90;;;;;;4938343;29;20498;-66
2021/07/26 11:22:04;;;;;;;0.50;0.20;;;29.00;99.90;;;;;;4955465;29;20885;-64
2021/07/26 11:24:41;;;;;;;0.50;0.20;;;28.90;96.60;;;;;;4955367;29;20435;-68
2021/07/26 11:27:12;;;;;;;0.50;0.10;;;29.00;1.00;;;;;;4955079;29;20456;-64
2021/07/26 11:29:37;;;;;;;0.50;0.20;;;28.70;1.00;;;;;;4955107;29;20432;-64
2021/07/26 11:32:04;;;;;;;1.27;0.90;;;28.70;1.00;;;;;;4938478;29;20435;-67
2021/07/26 11:34:31;;;;;;;0.50;0.20;;;28.60;1.00;;;;;;4955514;29;20181;-68
2021/07/26 11:37:04;;;;;;;0.50;0.10;;;28.20;40.60;;;;;;4955295;29;20432;-66
2021/07/26 11:40:09;;;;;;;0.60;0.20;;;28.10;99.90;;;;;;4955092;29;20436;-67
2021/07/26 11:42:40;;;;;;;0.50;0.20;;;27.90;15.80;;;;;;4916380;29;20503;-67
2021/07/26 11:45:08;;;;;;;0.50;0.20;;;27.80;99.90;;;;;;4955221;29;20769;-67
2021/07/26 11:47:44;;;;;;;0.50;0.20;;;27.70;99.90;;;;;;4945330;29;20464;-68
2021/07/26 11:50:12;;;;;;;0.50;0.20;;;27.90;99.90;;;;;;4935944;29;20464;-68
2021/07/26 11:52:50;;;;;;;0.60;0.30;;;28.20;74.00;;;;;;4919339;29;20894;-69
2021/07/26 11:55:15;;;;;;;0.50;0.20;;;27.80;22.30;;;;;;4935837;29;20487;-69
2021/07/26 11:58:07;;;;;;;0.50;0.30;;;27.70;99.90;;;;;;4935898;29;20519;-68
2021/07/26 12:00:37;;;;;;;0.87;0.47;;;28.10;54.10;;;;;;4958906;28;20187;-69
2021/07/26 12:03:04;;;;;;;0.60;0.57;;;28.20;26.00;;;;;;4957841;28;20477;-69
2021/07/26 12:05:31;;;;;;;0.60;0.30;;;28.30;1.00;;;;;;4974197;28;20443;-69
2021/07/26 12:07:58;;;;;;;0.50;0.20;;;28.60;1.00;;;;;;4974207;28;20471;-68
2021/07/26 12:10:35;;;;;;;0.97;0.40;;;28.80;1.00;;;;;;4974216;28;20415;-68
2021/07/26 12:13:08;;;;;;;3.20;0.73;;;28.60;1.00;;;;;;4961394;28;20493;-69
2021/07/26 12:15:34;;;;;;;0.50;0.20;;;28.60;1.00;;;;;;4978137;28;20453;-69
2021/07/26 12:18:10;;;;;;;1.10;0.37;;;28.40;1.00;;;;;;4961173;28;20982;-69
2021/07/26 12:20:36;;;;;;;0.50;0.20;;;28.70;99.90;;;;;;4960683;28;20438;-68
2021/07/26 12:23:13;;;;;;;0.50;0.40;;;28.30;99.90;;;;;;4960786;28;20427;-69
2021/07/26 12:25:47;;;;;;;0.50;0.20;;;28.40;1.00;;;;;;4977781;28;20981;-70
2021/07/26 12:28:14;;;;;;;0.50;0.20;;;28.40;1.00;;;;;;4977565;28;20852;-67
2021/07/26 12:30:43;;;;;;;0.50;0.17;;;28.10;1.00;;;;;;4977827;28;20919;-68
2021/07/26 12:33:09;;;;;;;1.53;1.43;;;28.30;1.00;;;;;;4977560;28;20427;-68
2021/07/26 12:35:35;;;;;;;0.50;0.20;;;28.90;99.90;;;;;;4977259;28;20431;-67
2021/07/26 12:38:20;;;;;;;1.17;1.07;;;29.00;99.90;;;;;;4960476;28;20830;-69
2021/07/26 12:41:07;;;;;;;0.50;0.30;;;28.80;99.90;;;;;;4977310;28;20179;-69
2021/07/26 12:43:33;;;;;;;0.60;0.20;;;28.90;99.90;;;;;;4977482;28;20923;-69
2021/07/26 12:46:06;;;;;;;0.50;0.20;;;28.40;99.90;;;;;;4977237;28;20430;-69
2021/07/26 12:48:34;;;;;;;0.50;0.20;;;28.40;99.90;;;;;;4959512;28;20499;-69
2021/07/26 12:51:04;;;;;;;0.50;0.20;;;28.50;99.90;;;;;;4941139;29;20432;-70
2021/07/26 12:53:30;;;;;;;0.70;0.40;;;28.80;99.90;;;;;;4940996;29;20482;-69
2021/07/26 12:55:56;;;;;;;0.50;0.20;;;29.20;99.90;;;;;;4957795;29;20427;-70